Time;durP1;ratioP1;P1;durP2;ratioP2;P2;SDS_P1;SDS_P2;PMS_P1;PMS_P2;Temp;Humidity;BMP_temperature;BMP_pressure;BME280_temperature;BME280_humidity;BME280_pressure;Samples;Min_cycle;Max_cycle;Signal;HPM_P1;HPM_P2
2021/08/20 00:01:01;;;;;;;3.55;2.65;;;18.60;99.90;;;;;;4154949;28;20400;-69
2021/08/20 00:03:02;;;;;;;5.10;3.05;;;18.60;99.90;;;;;;4153393;28;20045;-69
2021/08/20 00:05:04;;;;;;;5.53;3.33;;;18.60;99.90;;;;;;4152580;28;20130;-69
2021/08/20 00:07:05;;;;;;;5.10;2.90;;;18.60;99.90;;;;;;4154197;28;20045;-69
2021/08/20 00:09:05;;;;;;;4.30;3.00;;;18.50;99.90;;;;;;4152198;28;20046;-69
2021/08/20 00:11:07;;;;;;;4.75;3.17;;;18.50;99.90;;;;;;4156358;28;20494;-69
2021/08/20 00:13:07;;;;;;;4.03;3.08;;;18.60;99.90;;;;;;4149772;28;20439;-69
2021/08/20 00:15:09;;;;;;;4.60;3.17;;;18.50;99.90;;;;;;4154704;28;20038;-69
2021/08/20 00:17:09;;;;;;;4.88;3.35;;;18.50;99.90;;;;;;4147946;28;20120;-69
2021/08/20 00:19:10;;;;;;;5.25;3.05;;;18.50;99.90;;;;;;4147426;28;20065;-69
2021/08/20 00:21:11;;;;;;;5.40;3.40;;;18.50;99.90;;;;;;4148687;28;20033;-69
2021/08/20 00:23:12;;;;;;;5.57;3.30;;;18.40;99.90;;;;;;4151976;28;20521;-69
2021/08/20 00:25:13;;;;;;;6.18;3.30;;;18.40;99.90;;;;;;4146486;28;20070;-70
2021/08/20 00:27:13;;;;;;;4.32;3.25;;;18.40;99.90;;;;;;4151439;28;20039;-69
2021/08/20 00:29:14;;;;;;;4.72;2.88;;;18.40;99.90;;;;;;4159122;28;20034;-69
2021/08/20 00:31:14;;;;;;;7.45;3.15;;;18.40;99.90;;;;;;4158706;28;20037;-69
2021/08/20 00:33:15;;;;;;;4.15;2.75;;;18.40;99.90;;;;;;4144034;28;20050;-69
2021/08/20 00:35:16;;;;;;;4.68;3.40;;;18.40;99.90;;;;;;4156972;28;20068;-69
2021/08/20 00:37:16;;;;;;;4.72;3.58;;;18.40;99.90;;;;;;4144603;28;20034;-69
2021/08/20 00:39:18;;;;;;;4.50;2.63;;;18.40;99.90;;;;;;4152655;28;20028;-69
2021/08/20 00:41:19;;;;;;;4.57;3.30;;;18.30;99.90;;;;;;4157308;28;20067;-69
2021/08/20 00:43:19;;;;;;;3.75;2.90;;;18.30;99.90;;;;;;4138557;28;20058;-69
2021/08/20 00:45:20;;;;;;;5.90;3.60;;;18.30;99.90;;;;;;4150622;28;20030;-69
2021/08/20 00:47:20;;;;;;;4.57;3.10;;;18.30;99.90;;;;;;4144950;28;20029;-69
2021/08/20 00:49:21;;;;;;;3.88;2.97;;;18.30;99.90;;;;;;4145699;28;20256;-69
2021/08/20 00:51:27;;;;;;;5.35;3.38;;;18.30;99.90;;;;;;4151990;28;20034;-69
2021/08/20 00:53:29;;;;;;;3.83;3.03;;;18.30;99.90;;;;;;4144525;28;20046;-69
2021/08/20 00:55:30;;;;;;;5.95;3.30;;;18.30;99.90;;;;;;4123661;28;20066;-69
2021/08/20 00:57:31;;;;;;;5.13;3.70;;;18.30;99.90;;;;;;4152708;28;20049;-69
2021/08/20 00:59:32;;;;;;;4.68;3.13;;;18.30;99.90;;;;;;4143180;28;20034;-69
2021/08/20 01:01:35;;;;;;;3.90;2.90;;;18.30;99.90;;;;;;4154708;28;20033;-69
2021/08/20 01:03:37;;;;;;;4.53;3.47;;;18.30;99.90;;;;;;4147919;28;20124;-69
2021/08/20 01:05:38;;;;;;;6.22;4.18;;;18.20;99.90;;;;;;4148432;28;20037;-69
2021/08/20 01:07:39;;;;;;;4.55;3.63;;;18.20;99.90;;;;;;4145572;28;20034;-69
2021/08/20 01:09:40;;;;;;;5.32;3.95;;;18.30;99.90;;;;;;4155247;28;20156;-70
2021/08/20 01:11:41;;;;;;;6.53;3.75;;;18.20;99.90;;;;;;4160040;28;20032;-69
2021/08/20 01:13:42;;;;;;;6.35;3.35;;;18.20;99.90;;;;;;4150952;28;20030;-69
2021/08/20 01:15:43;;;;;;;5.05;3.60;;;18.20;99.90;;;;;;4161501;28;20037;-69
2021/08/20 01:17:44;;;;;;;5.45;4.05;;;18.20;99.90;;;;;;4150984;28;20128;-69
2021/08/20 01:19:44;;;;;;;4.32;3.30;;;18.10;99.90;;;;;;4161062;28;20037;-69
2021/08/20 01:21:46;;;;;;;5.38;3.53;;;18.20;99.90;;;;;;4153078;28;20060;-69
2021/08/20 01:23:50;;;;;;;7.43;3.97;;;18.10;99.90;;;;;;4147475;28;20034;-69
2021/08/20 01:25:51;;;;;;;4.95;3.50;;;18.20;99.90;;;;;;4158556;28;20072;-69
2021/08/20 01:28:06;;;;;;;5.88;3.45;;;18.20;99.90;;;;;;4141375;28;20053;-69
2021/08/20 01:30:07;;;;;;;4.53;3.50;;;18.10;99.90;;;;;;4138555;28;20046;-69
2021/08/20 01:32:08;;;;;;;5.03;3.47;;;18.10;99.90;;;;;;4140285;28;20138;-69
2021/08/20 01:34:08;;;;;;;5.70;3.42;;;18.20;99.90;;;;;;4142074;28;20045;-69
2021/08/20 01:36:10;;;;;;;4.70;3.20;;;18.20;99.90;;;;;;4155004;28;20117;-69
2021/08/20 01:38:10;;;;;;;6.93;3.95;;;18.10;99.90;;;;;;4141690;28;20033;-69
2021/08/20 01:40:11;;;;;;;4.78;3.90;;;18.20;99.90;;;;;;4148861;28;20061;-69
2021/08/20 01:42:12;;;;;;;5.90;4.00;;;18.20;99.90;;;;;;4158008;28;20041;-69
2021/08/20 01:44:12;;;;;;;7.60;4.43;;;18.20;99.90;;;;;;4150858;28;20083;-69
2021/08/20 01:46:14;;;;;;;4.93;3.70;;;18.20;99.90;;;;;;4145271;28;20165;-69
2021/08/20 01:48:14;;;;;;;4.65;3.58;;;18.10;99.90;;;;;;4143363;28;20030;-69
2021/08/20 01:50:15;;;;;;;5.72;4.03;;;18.10;99.90;;;;;;4144933;28;20037;-69
2021/08/20 01:52:16;;;;;;;5.47;4.05;;;18.10;99.90;;;;;;4152512;28;20046;-70
2021/08/20 01:54:16;;;;;;;10.82;4.35;;;18.10;99.90;;;;;;4148247;28;20036;-69
2021/08/20 01:56:25;;;;;;;5.78;4.13;;;18.10;99.90;;;;;;4159427;28;20088;-69
2021/08/20 01:58:25;;;;;;;5.28;4.00;;;18.10;99.90;;;;;;4131419;28;20046;-69
2021/08/20 02:00:26;;;;;;;5.50;3.72;;;18.00;99.90;;;;;;4140571;28;20038;-69
2021/08/20 02:02:26;;;;;;;5.47;4.13;;;18.00;99.90;;;;;;4150114;28;20111;-69
2021/08/20 02:04:27;;;;;;;6.35;3.83;;;18.00;99.90;;;;;;4145107;28;20030;-69
2021/08/20 02:06:28;;;;;;;6.55;4.40;;;18.00;99.90;;;;;;4159090;28;20518;-69
2021/08/20 02:08:29;;;;;;;6.25;4.18;;;18.00;99.90;;;;;;4144700;28;20508;-69
2021/08/20 02:10:29;;;;;;;8.52;4.47;;;18.00;99.90;;;;;;4139496;28;20046;-69
2021/08/20 02:12:30;;;;;;;6.25;4.35;;;17.90;99.90;;;;;;4138970;28;20050;-69
2021/08/20 02:14:30;;;;;;;7.22;4.93;;;17.90;99.90;;;;;;4142380;28;20085;-69
2021/08/20 02:16:31;;;;;;;6.80;4.18;;;17.90;99.90;;;;;;4136332;28;20046;-69
2021/08/20 02:18:32;;;;;;;7.60;5.30;;;17.90;99.90;;;;;;4136086;28;20042;-69
2021/08/20 02:20:32;;;;;;;9.18;5.32;;;17.80;99.90;;;;;;4141404;28;20045;-69
2021/08/20 02:22:33;;;;;;;6.40;4.80;;;17.70;99.90;;;;;;4140911;28;20049;-69
2021/08/20 02:24:34;;;;;;;7.38;5.38;;;17.70;99.90;;;;;;4138745;28;20034;-69
2021/08/20 02:26:34;;;;;;;6.47;4.93;;;17.70;99.90;;;;;;4140028;28;20033;-69
2021/08/20 02:28:35;;;;;;;8.43;5.00;;;17.70;99.90;;;;;;4132965;28;20030;-69
2021/08/20 02:30:36;;;;;;;8.25;5.60;;;17.60;99.90;;;;;;4141516;28;20181;-69
2021/08/20 02:32:36;;;;;;;6.60;4.75;;;17.60;99.90;;;;;;4140604;28;20211;-69
2021/08/20 02:34:37;;;;;;;10.13;5.25;;;17.60;99.90;;;;;;4146435;28;20114;-69
2021/08/20 02:36:38;;;;;;;8.10;4.90;;;17.60;99.90;;;;;;4154639;28;20045;-69
2021/08/20 02:38:39;;;;;;;6.47;4.60;;;17.60;99.90;;;;;;4143819;28;20063;-69
2021/08/20 02:40:39;;;;;;;6.38;5.05;;;17.60;99.90;;;;;;4145566;28;20042;-69
2021/08/20 02:42:40;;;;;;;5.72;4.78;;;17.60;99.90;;;;;;4156104;28;20053;-69
2021/08/20 02:44:41;;;;;;;5.13;4.53;;;17.50;99.90;;;;;;4150739;28;20041;-69
2021/08/20 02:46:41;;;;;;;6.95;5.10;;;17.60;99.90;;;;;;4145955;28;20042;-69
2021/08/20 02:48:42;;;;;;;8.02;5.10;;;17.60;99.90;;;;;;4148471;28;20035;-69
2021/08/20 02:50:43;;;;;;;6.55;4.85;;;17.50;99.90;;;;;;4155642;28;20041;-69
2021/08/20 02:52:43;;;;;;;7.70;5.07;;;17.60;99.90;;;;;;4153788;28;21610;-69
2021/08/20 02:54:44;;;;;;;7.38;5.18;;;17.50;99.90;;;;;;4142433;28;20034;-69
2021/08/20 02:56:44;;;;;;;8.10;5.65;;;17.50;99.90;;;;;;4151046;28;20041;-69
2021/08/20 02:58:45;;;;;;;8.25;5.43;;;17.50;99.90;;;;;;4154055;28;20062;-70
2021/08/20 03:00:46;;;;;;;8.30;5.57;;;17.50;99.90;;;;;;4138873;28;20729;-69
2021/08/20 03:02:46;;;;;;;8.23;5.65;;;17.40;99.90;;;;;;4140255;28;20033;-69
2021/08/20 03:04:47;;;;;;;8.35;5.80;;;17.40;99.90;;;;;;4155598;28;20117;-69
2021/08/20 03:06:48;;;;;;;8.43;6.15;;;17.40;99.90;;;;;;4159142;28;20037;-69
2021/08/20 03:08:48;;;;;;;8.57;6.53;;;17.40;99.90;;;;;;4155367;28;20037;-69
2021/08/20 03:10:49;;;;;;;8.82;6.25;;;17.30;99.90;;;;;;4152901;28;20068;-69
2021/08/20 03:12:49;;;;;;;8.90;6.03;;;17.30;99.90;;;;;;4150265;28;20060;-69
2021/08/20 03:14:51;;;;;;;8.82;6.10;;;17.30;99.90;;;;;;4141182;28;20026;-69
2021/08/20 03:16:52;;;;;;;12.57;7.37;;;17.30;99.90;;;;;;4143399;28;20050;-69
2021/08/20 03:18:52;;;;;;;8.75;6.22;;;17.20;99.90;;;;;;4149579;28;20033;-69
2021/08/20 03:20:53;;;;;;;10.82;7.22;;;17.20;99.90;;;;;;4137424;28;20037;-69
2021/08/20 03:22:54;;;;;;;9.88;7.10;;;17.20;99.90;;;;;;4154515;28;20092;-69
2021/08/20 03:24:54;;;;;;;8.65;6.20;;;17.20;99.90;;;;;;4145176;28;20052;-69
2021/08/20 03:26:56;;;;;;;7.60;6.03;;;17.20;99.90;;;;;;4144040;28;20033;-69
2021/08/20 03:28:56;;;;;;;8.52;6.40;;;17.20;99.90;;;;;;4158603;28;20036;-70
2021/08/20 03:30:57;;;;;;;11.70;6.75;;;17.20;99.90;;;;;;4159242;28;20386;-69
2021/08/20 03:32:58;;;;;;;8.60;6.55;;;17.20;99.90;;;;;;4154372;28;20116;-69
2021/08/20 03:34:58;;;;;;;7.22;6.07;;;17.20;99.90;;;;;;4159284;28;20048;-70
2021/08/20 03:36:59;;;;;;;9.60;7.07;;;17.20;99.90;;;;;;4135834;28;20049;-69
2021/08/20 03:39:00;;;;;;;11.60;6.75;;;17.20;99.90;;;;;;4143962;28;20048;-69
2021/08/20 03:41:00;;;;;;;11.75;7.55;;;17.20;99.90;;;;;;4151705;28;20037;-69
2021/08/20 03:43:01;;;;;;;8.68;6.25;;;17.10;99.90;;;;;;4140408;28;20047;-69
2021/08/20 03:45:01;;;;;;;9.65;6.97;;;17.10;99.90;;;;;;4147862;28;20040;-69
2021/08/20 03:47:02;;;;;;;12.35;6.97;;;17.10;99.90;;;;;;4140414;28;20368;-69
2021/08/20 03:49:03;;;;;;;8.98;6.32;;;17.10;99.90;;;;;;4148614;28;20964;-69
2021/08/20 03:51:04;;;;;;;9.95;7.00;;;17.10;99.90;;;;;;4135687;28;20102;-69
2021/08/20 03:53:05;;;;;;;11.00;7.57;;;17.10;99.90;;;;;;4148099;28;20458;-69
2021/08/20 03:55:06;;;;;;;10.60;7.15;;;17.10;99.90;;;;;;4142200;28;20483;-69
2021/08/20 03:57:07;;;;;;;9.60;7.18;;;17.10;99.90;;;;;;4143242;28;20424;-69
2021/08/20 03:59:07;;;;;;;9.57;5.95;;;17.10;99.90;;;;;;4157826;28;20052;-69
2021/08/20 04:01:08;;;;;;;9.45;6.75;;;17.20;99.90;;;;;;4155383;28;20100;-69
2021/08/20 04:03:08;;;;;;;11.50;6.95;;;17.10;99.90;;;;;;4141911;28;20042;-69
2021/08/20 04:05:09;;;;;;;10.23;6.93;;;17.10;99.90;;;;;;4149274;28;20037;-69
2021/08/20 04:07:10;;;;;;;9.70;6.20;;;17.10;99.90;;;;;;4149639;28;20045;-69
2021/08/20 04:09:10;;;;;;;9.23;6.82;;;17.10;99.90;;;;;;4156913;28;20041;-69
2021/08/20 04:11:12;;;;;;;9.00;6.82;;;17.10;99.90;;;;;;4157383;28;20038;-69
2021/08/20 04:13:13;;;;;;;10.70;6.72;;;17.10;99.90;;;;;;4152526;28;20046;-69
2021/08/20 04:15:14;;;;;;;10.38;6.97;;;17.10;99.90;;;;;;4141214;28;20075;-69
2021/08/20 04:17:15;;;;;;;8.85;6.60;;;17.10;99.90;;;;;;4155383;28;20034;-69
2021/08/20 04:19:15;;;;;;;10.07;6.13;;;17.10;99.90;;;;;;4151700;28;20135;-69
2021/08/20 04:21:16;;;;;;;7.82;5.93;;;17.10;99.90;;;;;;4149234;28;20044;-69
2021/08/20 04:23:17;;;;;;;7.40;5.80;;;17.10;99.90;;;;;;4139822;28;20046;-69
2021/08/20 04:25:17;;;;;;;7.50;5.82;;;17.00;99.90;;;;;;4153678;28;20568;-69
2021/08/20 04:27:18;;;;;;;9.48;6.47;;;17.00;99.90;;;;;;4150370;28;20041;-69
2021/08/20 04:29:19;;;;;;;7.15;5.32;;;17.00;99.90;;;;;;4149668;28;20041;-69
2021/08/20 04:31:19;;;;;;;7.30;5.72;;;17.10;99.90;;;;;;4158136;28;20056;-69
2021/08/20 04:33:20;;;;;;;9.93;5.75;;;17.10;99.90;;;;;;4152274;28;20088;-69
2021/08/20 04:35:21;;;;;;;8.25;5.85;;;17.10;99.90;;;;;;4155789;28;20041;-69
2021/08/20 04:37:23;;;;;;;7.88;5.70;;;17.10;99.90;;;;;;4153649;28;20057;-69
2021/08/20 04:39:23;;;;;;;8.23;5.70;;;17.10;99.90;;;;;;4153586;28;20034;-70
2021/08/20 04:41:24;;;;;;;10.88;6.25;;;17.10;99.90;;;;;;4153609;28;20041;-70
2021/08/20 04:43:25;;;;;;;6.90;5.68;;;17.10;99.90;;;;;;4129571;28;20155;-70
2021/08/20 04:45:26;;;;;;;8.43;5.82;;;17.10;99.90;;;;;;4139660;28;20482;-70
2021/08/20 04:47:26;;;;;;;7.50;5.50;;;17.10;99.90;;;;;;4149811;28;20081;-70
2021/08/20 04:49:27;;;;;;;10.45;5.80;;;17.10;99.90;;;;;;4155263;28;20564;-72
2021/08/20 04:51:28;;;;;;;6.82;5.32;;;17.10;99.90;;;;;;4136293;28;20120;-72
2021/08/20 04:53:31;;;;;;;7.20;5.55;;;17.10;99.90;;;;;;4137759;28;20493;-72
2021/08/20 04:55:32;;;;;;;8.70;5.80;;;17.10;99.90;;;;;;4134111;28;20042;-71
2021/08/20 04:57:33;;;;;;;8.70;5.65;;;17.10;99.90;;;;;;4134105;28;20572;-72
2021/08/20 04:59:34;;;;;;;7.70;5.00;;;17.10;99.90;;;;;;4139334;28;20038;-72
2021/08/20 05:01:36;;;;;;;6.82;5.00;;;17.10;99.90;;;;;;4142310;28;20121;-71
2021/08/20 05:03:36;;;;;;;5.97;4.80;;;17.10;99.90;;;;;;4141438;28;20052;-71
2021/08/20 05:05:39;;;;;;;9.50;5.72;;;17.10;99.90;;;;;;4145044;28;20027;-72
2021/08/20 05:07:40;;;;;;;7.50;5.57;;;17.10;99.90;;;;;;4156095;28;20030;-71
2021/08/20 05:09:40;;;;;;;7.28;5.53;;;17.10;99.90;;;;;;4144279;28;20060;-72
2021/08/20 05:11:41;;;;;;;9.63;5.38;;;17.20;99.90;;;;;;4135763;28;20105;-72
2021/08/20 05:13:42;;;;;;;6.90;5.43;;;17.20;99.90;;;;;;4137794;28;20069;-72
2021/08/20 05:15:42;;;;;;;6.50;5.18;;;17.20;99.90;;;;;;4144019;28;20049;-72
2021/08/20 05:17:43;;;;;;;8.60;5.80;;;17.20;99.90;;;;;;4134870;28;20111;-72
2021/08/20 05:19:43;;;;;;;8.05;5.30;;;17.20;99.90;;;;;;4148278;28;20044;-72
2021/08/20 05:21:44;;;;;;;7.63;5.72;;;17.20;99.90;;;;;;4137192;28;20101;-72
2021/08/20 05:23:45;;;;;;;8.77;5.70;;;17.30;99.90;;;;;;4154972;28;20171;-72
2021/08/20 05:25:47;;;;;;;8.02;5.90;;;17.20;99.90;;;;;;4144081;28;20030;-72
2021/08/20 05:27:48;;;;;;;7.22;5.28;;;17.20;99.90;;;;;;4137642;28;20041;-72
2021/08/20 05:29:49;;;;;;;7.40;5.20;;;17.20;99.90;;;;;;4148116;28;20037;-72
2021/08/20 05:31:50;;;;;;;10.55;5.72;;;17.20;99.90;;;;;;4149902;28;20045;-72
2021/08/20 05:33:50;;;;;;;8.95;5.72;;;17.30;99.90;;;;;;4138293;28;20073;-71
2021/08/20 05:35:51;;;;;;;6.72;5.43;;;17.20;99.90;;;;;;4141943;28;20046;-71
2021/08/20 05:37:51;;;;;;;8.10;5.47;;;17.20;99.90;;;;;;4139656;28;20102;-72
2021/08/20 05:39:52;;;;;;;7.03;5.35;;;17.30;99.90;;;;;;4137377;28;20045;-72
2021/08/20 05:41:52;;;;;;;8.80;5.00;;;17.30;99.90;;;;;;4138816;28;20505;-72
2021/08/20 05:43:53;;;;;;;7.88;5.28;;;17.30;99.90;;;;;;4138705;28;20034;-72
2021/08/20 05:45:53;;;;;;;6.78;5.28;;;17.30;99.90;;;;;;4136424;28;20038;-72
2021/08/20 05:47:54;;;;;;;8.13;5.47;;;17.30;99.90;;;;;;4116396;28;20030;-72
2021/08/20 05:49:55;;;;;;;5.80;4.80;;;17.30;99.90;;;;;;4138359;28;20744;-72
2021/08/20 05:51:55;;;;;;;8.77;5.20;;;17.30;99.90;;;;;;4136340;28;20034;-72
2021/08/20 05:53:56;;;;;;;6.15;5.03;;;17.30;99.90;;;;;;4136503;28;20030;-72
2021/08/20 05:55:56;;;;;;;8.60;6.13;;;17.40;99.90;;;;;;4146523;28;21348;-72
2021/08/20 05:57:58;;;;;;;9.90;6.15;;;17.30;99.90;;;;;;4148329;28;20076;-72
2021/08/20 05:59:59;;;;;;;8.88;5.60;;;17.30;99.90;;;;;;4154181;28;20057;-72
2021/08/20 06:02:00;;;;;;;7.45;5.40;;;17.30;99.90;;;;;;4138554;28;20608;-72
2021/08/20 06:04:00;;;;;;;10.23;6.57;;;17.30;99.90;;;;;;4147537;28;20083;-73
2021/08/20 06:06:01;;;;;;;12.20;6.53;;;17.30;99.90;;;;;;4147064;28;20466;-72
2021/08/20 06:08:02;;;;;;;8.43;5.32;;;17.30;99.90;;;;;;4150649;28;20025;-72
2021/08/20 06:10:05;;;;;;;8.13;5.72;;;17.30;99.90;;;;;;4150345;28;20149;-72
2021/08/20 06:12:06;;;;;;;10.27;6.18;;;17.30;99.90;;;;;;4150738;28;20164;-72
2021/08/20 06:14:07;;;;;;;8.90;6.22;;;17.30;99.90;;;;;;4147794;28;20417;-71
2021/08/20 06:16:07;;;;;;;9.77;6.00;;;17.40;99.90;;;;;;4149893;28;20037;-72
2021/08/20 06:18:08;;;;;;;8.85;5.65;;;17.40;99.90;;;;;;4154285;28;20055;-72
2021/08/20 06:20:09;;;;;;;8.57;5.72;;;17.40;99.90;;;;;;4151003;28;20053;-72
2021/08/20 06:22:10;;;;;;;9.88;6.63;;;17.50;99.90;;;;;;4148665;28;20053;-71
2021/08/20 06:24:11;;;;;;;8.70;5.93;;;17.40;99.90;;;;;;4154358;28;20033;-72
2021/08/20 06:26:11;;;;;;;9.30;6.20;;;17.50;99.90;;;;;;4141002;28;20041;-72
2021/08/20 06:28:12;;;;;;;9.05;6.47;;;17.50;99.90;;;;;;4135233;28;20482;-72
2021/08/20 06:30:13;;;;;;;11.63;7.05;;;17.50;99.90;;;;;;4145910;28;20122;-71
2021/08/20 06:32:13;;;;;;;13.35;7.90;;;17.50;99.90;;;;;;4149778;28;20037;-72
2021/08/20 06:34:14;;;;;;;16.88;7.28;;;17.50;99.90;;;;;;4136738;28;20042;-71
2021/08/20 06:36:15;;;;;;;10.57;6.50;;;17.40;99.90;;;;;;4147511;28;20038;-71
2021/08/20 06:38:16;;;;;;;12.65;7.43;;;17.50;99.90;;;;;;4149197;28;20393;-72
2021/08/20 06:40:16;;;;;;;10.90;7.50;;;17.50;99.90;;;;;;4145701;28;20046;-72
2021/08/20 06:42:17;;;;;;;12.60;7.30;;;17.50;99.90;;;;;;4147168;28;20042;-72
2021/08/20 06:44:18;;;;;;;9.68;7.20;;;17.50;99.90;;;;;;4149186;28;20142;-72
2021/08/20 06:46:18;;;;;;;11.23;7.28;;;17.50;99.90;;;;;;4141139;28;20055;-71
2021/08/20 06:48:19;;;;;;;11.88;7.30;;;17.60;99.90;;;;;;4132796;28;20124;-72
2021/08/20 06:50:20;;;;;;;10.23;7.07;;;17.60;99.90;;;;;;4136068;28;20077;-72
2021/08/20 06:52:20;;;;;;;11.02;7.22;;;17.60;99.90;;;;;;4137703;28;20097;-71
2021/08/20 06:54:21;;;;;;;8.30;6.40;;;17.60;99.90;;;;;;4148027;28;20080;-72
2021/08/20 06:56:21;;;;;;;10.60;6.95;;;17.70;99.90;;;;;;4153089;28;20045;-72
2021/08/20 06:58:22;;;;;;;11.25;7.10;;;17.70;99.90;;;;;;4138359;28;20046;-71
2021/08/20 07:00:22;;;;;;;13.70;8.27;;;17.70;99.90;;;;;;4136638;28;20152;-72
2021/08/20 07:02:23;;;;;;;13.32;8.45;;;17.70;99.90;;;;;;4136685;28;20518;-72
2021/08/20 07:04:24;;;;;;;12.43;7.95;;;17.70;99.90;;;;;;4130087;28;20042;-72
2021/08/20 07:06:26;;;;;;;12.48;7.88;;;17.70;99.90;;;;;;4130488;28;20073;-72
2021/08/20 07:08:26;;;;;;;11.77;7.78;;;17.80;99.90;;;;;;4133807;28;20100;-72
2021/08/20 07:10:27;;;;;;;13.90;9.32;;;17.80;99.90;;;;;;4137629;28;20402;-73
2021/08/20 07:12:28;;;;;;;12.77;7.57;;;17.80;99.90;;;;;;4151020;28;20041;-72
2021/08/20 07:14:28;;;;;;;13.82;8.75;;;17.90;99.90;;;;;;4131104;28;20201;-71
2021/08/20 07:16:29;;;;;;;10.98;7.47;;;17.90;99.90;;;;;;4146218;28;20045;-71
2021/08/20 07:18:30;;;;;;;13.52;8.20;;;17.90;99.90;;;;;;4148029;28;20037;-72
2021/08/20 07:20:30;;;;;;;12.57;8.20;;;17.90;99.90;;;;;;4142842;28;20263;-71
2021/08/20 07:22:31;;;;;;;10.90;7.97;;;18.00;99.90;;;;;;4134015;28;20065;-72
2021/08/20 07:24:31;;;;;;;11.25;7.45;;;18.00;99.90;;;;;;4147597;28;20052;-71
2021/08/20 07:26:32;;;;;;;11.45;7.65;;;18.00;99.90;;;;;;4132761;28;20505;-71
2021/08/20 07:28:33;;;;;;;11.57;7.75;;;18.00;99.90;;;;;;4134417;28;20069;-72
2021/08/20 07:30:34;;;;;;;13.35;8.02;;;18.10;99.90;;;;;;4135325;28;20120;-72
2021/08/20 07:32:34;;;;;;;11.05;7.63;;;18.10;99.90;;;;;;4128549;28;20058;-71
2021/08/20 07:34:35;;;;;;;10.68;7.35;;;18.10;99.90;;;;;;4129768;28;20350;-71
2021/08/20 07:36:37;;;;;;;12.48;8.10;;;18.10;99.90;;;;;;4135260;28;20063;-72
2021/08/20 07:38:37;;;;;;;13.02;8.32;;;18.20;99.90;;;;;;4143741;28;20106;-72
2021/08/20 07:40:38;;;;;;;10.80;7.20;;;18.20;99.90;;;;;;4140975;28;20045;-71
2021/08/20 07:42:39;;;;;;;13.52;8.10;;;18.30;99.90;;;;;;4140431;28;20038;-72
2021/08/20 07:44:39;;;;;;;12.82;8.05;;;18.30;99.90;;;;;;4134689;28;20046;-72
2021/08/20 07:46:41;;;;;;;11.82;8.02;;;18.30;99.90;;;;;;4135871;28;20523;-72
2021/08/20 07:48:42;;;;;;;10.13;6.47;;;18.40;99.90;;;;;;4135746;28;20115;-72
2021/08/20 07:50:46;;;;;;;8.55;6.20;;;18.50;99.90;;;;;;4134142;28;20041;-71
2021/08/20 07:52:46;;;;;;;10.63;7.32;;;18.50;99.90;;;;;;4134349;28;20081;-71
2021/08/20 07:54:49;;;;;;;12.07;6.88;;;18.60;99.90;;;;;;4142340;28;20038;-72
2021/08/20 07:56:50;;;;;;;13.05;7.15;;;18.60;99.90;;;;;;4149581;28;20120;-72
2021/08/20 07:58:51;;;;;;;10.27;6.93;;;18.70;99.90;;;;;;4146904;28;20462;-71
2021/08/20 08:00:51;;;;;;;12.70;6.75;;;18.80;99.90;;;;;;4141280;28;20681;-72
2021/08/20 08:02:52;;;;;;;13.10;7.97;;;18.80;99.90;;;;;;4146344;28;20034;-71
2021/08/20 08:04:53;;;;;;;14.32;8.07;;;18.90;99.90;;;;;;4151691;28;20041;-72
2021/08/20 08:06:54;;;;;;;13.82;7.97;;;18.90;99.90;;;;;;4129884;28;20068;-71
2021/08/20 08:08:54;;;;;;;9.85;6.93;;;19.00;99.90;;;;;;4126544;28;20380;-71
2021/08/20 08:10:55;;;;;;;8.93;6.07;;;19.10;99.90;;;;;;4130749;28;20062;-72
2021/08/20 08:12:55;;;;;;;10.95;6.60;;;19.10;99.90;;;;;;4137461;28;20207;-72
2021/08/20 08:14:56;;;;;;;7.50;5.75;;;19.20;99.90;;;;;;4138252;28;20111;-72
2021/08/20 08:16:56;;;;;;;9.10;5.88;;;19.30;99.90;;;;;;4148776;28;20037;-72
2021/08/20 08:18:57;;;;;;;7.03;4.88;;;19.40;99.90;;;;;;4134811;28;20434;-71
2021/08/20 08:20:58;;;;;;;7.22;5.78;;;19.40;99.90;;;;;;4138095;28;20033;-72
2021/08/20 08:22:59;;;;;;;8.45;5.85;;;19.50;99.90;;;;;;4142094;28;20373;-71
2021/08/20 08:24:59;;;;;;;6.30;5.00;;;19.50;99.90;;;;;;4143906;28;20321;-71
2021/08/20 08:27:00;;;;;;;7.80;4.80;;;19.50;99.90;;;;;;4150028;28;20484;-71
2021/08/20 08:29:01;;;;;;;10.82;5.60;;;19.50;99.90;;;;;;4150808;28;20077;-71
2021/08/20 08:31:02;;;;;;;7.68;5.20;;;19.60;99.90;;;;;;4134777;28;20091;-71
2021/08/20 08:33:04;;;;;;;7.65;5.68;;;19.60;99.90;;;;;;4128483;28;20158;-71
2021/08/20 08:35:05;;;;;;;6.75;4.63;;;19.60;99.90;;;;;;4131851;28;20049;-71
2021/08/20 08:37:06;;;;;;;6.43;4.50;;;19.70;99.90;;;;;;4131123;28;20113;-71
2021/08/20 08:39:06;;;;;;;6.28;4.40;;;19.70;99.90;;;;;;4137326;28;20042;-71
2021/08/20 08:41:07;;;;;;;9.82;4.22;;;19.70;99.90;;;;;;4116330;28;20560;-71
2021/08/20 08:43:08;;;;;;;5.38;3.88;;;19.70;99.90;;;;;;4134286;28;20042;-71
2021/08/20 08:45:09;;;;;;;5.55;4.07;;;19.80;99.90;;;;;;4136146;28;20045;-71
2021/08/20 08:47:15;;;;;;;5.75;4.47;;;19.80;99.90;;;;;;4137468;28;20040;-71
2021/08/20 08:49:20;;;;;;;5.03;3.90;;;19.70;99.90;;;;;;4139623;28;20131;-71
2021/08/20 08:51:21;;;;;;;6.35;4.22;;;19.80;99.90;;;;;;4132957;28;20469;-71
2021/08/20 08:53:21;;;;;;;7.03;4.40;;;19.80;99.90;;;;;;4137039;28;20042;-71
2021/08/20 08:55:22;;;;;;;4.05;3.50;;;19.80;99.90;;;;;;4146871;28;20293;-71
2021/08/20 08:57:22;;;;;;;4.90;3.95;;;19.80;99.90;;;;;;4133037;28;20046;-71
2021/08/20 08:59:23;;;;;;;5.07;3.60;;;19.80;99.90;;;;;;4135010;28;20474;-71
2021/08/20 09:01:32;;;;;;;5.90;3.90;;;19.90;99.90;;;;;;4133719;28;20164;-72
2021/08/20 09:03:32;;;;;;;5.97;3.55;;;19.90;99.90;;;;;;4138814;28;20045;-71
2021/08/20 09:05:44;;;;;;;5.00;2.70;;;19.90;99.90;;;;;;4146526;28;20128;-71
2021/08/20 09:07:51;;;;;;;4.43;2.75;;;20.00;99.90;;;;;;4138590;28;20132;-71
2021/08/20 09:10:11;;;;;;;4.80;2.83;;;20.00;99.90;;;;;;4144818;28;20045;-71
2021/08/20 09:12:27;;;;;;;3.50;2.67;;;20.10;99.90;;;;;;4141993;28;20053;-71
2021/08/20 09:14:30;;;;;;;7.68;3.65;;;20.10;99.90;;;;;;4150490;28;20037;-71
2021/08/20 09:16:41;;;;;;;5.82;3.30;;;20.10;99.90;;;;;;4149282;28;20042;-71
2021/08/20 09:18:42;;;;;;;3.28;2.55;;;20.10;99.90;;;;;;4150444;28;20084;-71
2021/08/20 09:20:44;;;;;;;3.95;2.67;;;20.20;99.90;;;;;;4134129;28;20122;-71
2021/08/20 09:22:45;;;;;;;5.05;2.97;;;20.20;99.90;;;;;;4141292;28;21037;-71
2021/08/20 09:24:46;;;;;;;2.90;2.42;;;20.30;99.90;;;;;;4143852;28;20383;-71
2021/08/20 09:26:46;;;;;;;4.80;2.35;;;20.20;99.90;;;;;;4141494;28;20111;-71
2021/08/20 09:28:47;;;;;;;3.65;2.58;;;20.20;99.90;;;;;;4145239;28;21362;-71
2021/08/20 09:30:54;;;;;;;3.55;2.33;;;20.20;99.90;;;;;;4139453;28;20034;-70
2021/08/20 09:32:54;;;;;;;3.55;2.08;;;20.20;99.90;;;;;;4140274;28;20494;-71
2021/08/20 09:34:57;;;;;;;3.42;2.08;;;20.30;99.90;;;;;;4135347;28;20137;-71
2021/08/20 09:37:12;;;;;;;4.03;2.28;;;20.30;99.90;;;;;;4133053;28;20137;-70
2021/08/20 09:39:27;;;;;;;2.97;1.70;;;20.40;99.90;;;;;;4134958;28;20038;-70
2021/08/20 09:41:32;;;;;;;2.42;1.60;;;20.40;99.90;;;;;;4137628;28;20041;-71
2021/08/20 09:43:34;;;;;;;2.28;1.33;;;20.40;99.90;;;;;;4148862;28;21004;-71
2021/08/20 09:45:38;;;;;;;2.10;1.40;;;20.50;99.90;;;;;;4150171;28;20067;-70
2021/08/20 09:47:44;;;;;;;4.30;1.60;;;20.50;99.90;;;;;;4146571;28;20041;-70
2021/08/20 09:49:59;;;;;;;2.25;1.30;;;20.50;99.90;;;;;;4132203;28;20045;-70
2021/08/20 09:52:00;;;;;;;2.25;1.30;;;20.60;99.90;;;;;;4135479;28;20060;-70
2021/08/20 09:54:12;;;;;;;1.73;1.30;;;20.60;99.90;;;;;;4136403;28;20033;-70
2021/08/20 09:56:13;;;;;;;2.13;1.23;;;20.60;99.90;;;;;;4132277;28;20043;-70
2021/08/20 09:58:16;;;;;;;1.05;0.75;;;20.50;99.90;;;;;;4118060;28;20484;-70
2021/08/20 10:00:17;;;;;;;0.85;0.80;;;20.50;99.90;;;;;;4134463;28;20091;-71
2021/08/20 10:02:23;;;;;;;3.72;1.38;;;20.50;99.90;;;;;;4137170;28;20050;-71
2021/08/20 10:04:26;;;;;;;3.38;1.15;;;20.50;99.90;;;;;;4144505;28;20324;-71
2021/08/20 10:06:41;;;;;;;1.63;1.08;;;20.50;99.90;;;;;;4131057;28;20049;-70
2021/08/20 10:08:42;;;;;;;2.65;1.40;;;20.50;99.90;;;;;;4143150;28;20041;-71
2021/08/20 10:10:45;;;;;;;2.50;1.60;;;20.40;99.90;;;;;;4139290;28;20601;-71
2021/08/20 10:12:46;;;;;;;2.90;1.77;;;20.50;99.90;;;;;;4135017;28;20120;-71
2021/08/20 10:14:48;;;;;;;3.13;2.08;;;20.40;99.90;;;;;;4133851;28;20077;-71
2021/08/20 10:16:48;;;;;;;2.90;1.77;;;20.50;99.90;;;;;;4135276;28;20124;-71
2021/08/20 10:18:49;;;;;;;3.88;2.20;;;20.40;99.90;;;;;;4141917;28;20479;-70
2021/08/20 10:20:50;;;;;;;3.70;1.50;;;20.40;99.90;;;;;;4143801;28;20477;-71
2021/08/20 10:22:51;;;;;;;2.10;1.35;;;20.40;99.90;;;;;;4139627;28;20045;-71
2021/08/20 10:24:52;;;;;;;1.98;1.23;;;20.30;99.90;;;;;;4137452;28;20112;-71
2021/08/20 10:26:55;;;;;;;1.77;1.13;;;20.30;99.90;;;;;;4142860;28;20042;-71
2021/08/20 10:28:57;;;;;;;1.58;1.00;;;20.30;99.90;;;;;;4138652;28;20537;-71
2021/08/20 10:30:58;;;;;;;0.75;0.68;;;20.30;99.90;;;;;;4138766;28;20121;-71